Time;durP1;ratioP1;P1;durP2;ratioP2;P2;SDS_P1;SDS_P2;PMS_P1;PMS_P2;Temp;Humidity;BMP_temperature;BMP_pressure;BME280_temperature;BME280_humidity;BME280_pressure;Samples;Min_cycle;Max_cycle;Signal;HPM_P1;HPM_P2
2023/06/07 00:02:22;;;;;;;14.30;7.90;;;;;;;16.52;60.16;100862.70;104603;1269;102602;-80
2023/06/07 00:05:09;;;;;;;13.20;8.00;;;;;;;16.50;60.24;100865.16;104608;1268;99090;-78
2023/06/07 00:07:55;;;;;;;8.90;7.50;;;;;;;16.46;60.13;100862.38;104559;1270;98835;-78
2023/06/07 00:10:40;;;;;;;12.60;8.80;;;;;;;16.40;60.49;100860.05;104684;1274;97895;-81
2023/06/07 00:13:25;;;;;;;10.70;7.90;;;;;;;16.36;60.53;100859.66;105592;1269;98509;-80
2023/06/07 00:16:12;;;;;;;15.70;9.40;;;;;;;16.27;60.61;100860.59;104698;1268;102365;-77
2023/06/07 00:18:57;;;;;;;15.70;8.30;;;;;;;16.17;60.98;100859.34;104741;1268;99096;-79
2023/06/07 00:21:42;;;;;;;12.40;9.10;;;;;;;16.12;61.13;100864.34;104723;1272;98974;-80
2023/06/07 00:24:28;;;;;;;10.10;8.60;;;;;;;16.07;61.27;100861.11;104636;1271;98515;-80
2023/06/07 00:27:14;;;;;;;10.60;8.30;;;;;;;16.00;61.57;100858.08;104769;1269;99647;-78
2023/06/07 00:30:00;;;;;;;10.80;8.50;;;;;;;15.94;62.04;100855.28;104634;1274;101940;-78
2023/06/07 00:32:46;;;;;;;10.90;8.10;;;;;;;15.88;62.59;100857.48;104635;1273;99090;-78
2023/06/07 00:35:31;;;;;;;9.60;7.80;;;;;;;15.77;63.03;100855.65;104621;1268;98001;-79
2023/06/07 00:38:17;;;;;;;11.70;8.60;;;;;;;15.66;63.41;100858.23;104734;1272;97977;-78
2023/06/07 00:41:03;;;;;;;15.50;8.80;;;;;;;15.59;63.64;100858.54;104623;1274;98522;-78
2023/06/07 00:43:48;;;;;;;11.60;8.00;;;;;;;15.50;63.77;100859.48;104819;1273;101918;-80
2023/06/07 00:46:34;;;;;;;9.50;7.90;;;;;;;15.43;63.47;100856.02;104712;1269;100246;-79
2023/06/07 00:49:20;;;;;;;9.10;7.80;;;;;;;15.39;63.62;100854.79;104682;1273;98737;-80
2023/06/07 00:52:06;;;;;;;12.60;8.30;;;;;;;15.36;63.74;100855.63;104702;1268;98182;-80
2023/06/07 00:54:52;;;;;;;11.00;8.40;;;;;;;15.32;63.89;100853.40;104683;1273;98419;-79
2023/06/07 00:57:38;;;;;;;10.60;8.00;;;;;;;15.28;63.94;100855.20;104668;1273;102610;-79
2023/06/07 01:00:24;;;;;;;10.00;8.20;;;;;;;15.28;64.06;100854.74;104595;1269;99945;-78
2023/06/07 01:03:11;;;;;;;9.70;7.70;;;;;;;15.27;64.15;100853.66;104561;1273;97994;-80
2023/06/07 01:06:02;;;;;;;8.90;7.60;;;;;;;15.24;64.23;100854.38;105198;1269;98561;-80
2023/06/07 01:08:51;;;;;;;9.70;8.30;;;;;;;15.23;64.33;100853.95;104783;1282;98065;-79
2023/06/07 01:11:37;;;;;;;8.70;7.80;;;;;;;15.22;64.62;100858.45;104819;1272;101495;-79
2023/06/07 01:14:24;;;;;;;8.70;7.80;;;;;;;15.20;64.46;100857.82;104605;1273;100382;-79
2023/06/07 01:17:12;;;;;;;10.70;8.20;;;;;;;15.19;64.74;100855.66;104754;1269;99101;-80
2023/06/07 01:19:59;;;;;;;14.10;9.60;;;;;;;15.15;64.88;100856.05;104626;1273;98402;-80
2023/06/07 01:22:48;;;;;;;11.50;8.90;;;;;;;15.07;65.06;100853.05;104685;1269;98498;-78
2023/06/07 01:25:34;;;;;;;13.90;9.50;;;;;;;15.02;65.35;100849.88;104698;1273;101497;-79
2023/06/07 01:28:20;;;;;;;13.00;9.20;;;;;;;14.97;65.87;100850.55;104793;1273;99245;-80
2023/06/07 01:31:05;;;;;;;10.70;8.40;;;;;;;14.90;66.14;100848.12;104798;1273;97977;-78
2023/06/07 01:33:52;;;;;;;15.10;8.90;;;;;;;14.81;66.39;100847.91;104666;1274;98472;-78
2023/06/07 01:36:38;;;;;;;10.90;9.30;;;;;;;14.73;66.49;100841.15;104729;1268;98067;-78
2023/06/07 01:39:26;;;;;;;9.20;8.30;;;;;;;14.68;66.57;100841.27;104699;1268;101350;-80
2023/06/07 01:42:12;;;;;;;14.40;8.90;;;;;;;14.66;66.65;100841.14;104762;1270;99767;-80
2023/06/07 01:44:58;;;;;;;10.60;8.50;;;;;;;14.64;66.93;100839.77;104843;1269;97954;-79
2023/06/07 01:47:44;;;;;;;11.40;9.40;;;;;;;14.62;67.02;100839.08;104738;1273;98851;-80
2023/06/07 01:50:30;;;;;;;13.60;9.30;;;;;;;14.59;67.03;100835.68;104800;1269;98566;-79
2023/06/07 01:53:16;;;;;;;13.80;9.00;;;;;;;14.56;67.14;100837.33;104740;1274;101400;-79
2023/06/07 01:56:21;;;;;;;12.80;9.20;;;;;;;14.55;67.30;100837.29;104748;1271;99226;-79
2023/06/07 01:59:30;;;;;;;10.70;9.20;;;;;;;14.58;67.75;100836.16;104684;1269;98302;-79
2023/06/07 02:02:54;;;;;;;12.30;9.00;;;;;;;14.57;67.60;100836.79;104660;1268;98115;-79
2023/06/07 02:05:48;;;;;;;10.30;9.00;;;;;;;14.53;67.72;100836.51;104777;1271;97981;-80
2023/06/07 02:08:37;;;;;;;10.20;8.30;;;;;;;14.50;67.71;100833.14;104687;1274;102205;-79
2023/06/07 02:11:27;;;;;;;12.50;8.90;;;;;;;14.47;67.80;100832.05;104625;1273;99128;-78
2023/06/07 02:14:13;;;;;;;10.70;9.00;;;;;;;14.44;68.08;100828.88;104775;1273;98463;-80
2023/06/07 02:17:06;;;;;;;10.40;8.20;;;;;;;14.43;68.20;100831.02;104912;1269;97965;-79
2023/06/07 02:19:52;;;;;;;12.60;8.30;;;;;;;14.40;68.21;100828.60;104567;1269;99250;-80
2023/06/07 02:22:38;;;;;;;9.80;8.40;;;;;;;14.37;68.47;100828.11;104749;1273;102803;-80
2023/06/07 02:25:24;;;;;;;12.20;8.10;;;;;;;14.36;68.48;100827.38;104685;1269;99253;-80
2023/06/07 02:28:13;;;;;;;9.20;8.30;;;;;;;14.36;68.39;100826.95;104793;1273;98096;-80
2023/06/07 02:30:58;;;;;;;13.30;8.60;;;;;;;14.38;68.23;100825.74;104654;1268;97975;-79
2023/06/07 02:33:44;;;;;;;9.70;8.50;;;;;;;14.42;68.25;100827.81;104812;1268;97963;-78
2023/06/07 02:36:33;;;;;;;13.10;8.30;;;;;;;14.44;68.00;100826.05;104760;1273;102622;-79
2023/06/07 02:39:18;;;;;;;11.40;7.80;;;;;;;14.44;67.91;100826.70;104723;1273;99100;-79
2023/06/07 02:42:04;;;;;;;11.30;7.90;;;;;;;14.47;67.44;100829.58;104743;1271;98934;-79
2023/06/07 02:44:50;;;;;;;15.70;7.70;;;;;;;14.52;67.19;100832.73;104759;1269;98003;-80
2023/06/07 02:47:36;;;;;;;10.00;7.50;;;;;;;14.55;67.13;100831.90;104768;1269;97993;-79
2023/06/07 02:50:22;;;;;;;9.80;7.90;;;;;;;14.58;66.76;100832.35;104611;1269;101367;-79
2023/06/07 02:53:08;;;;;;;10.10;8.20;;;;;;;14.62;66.41;100835.38;104655;1276;99121;-79
2023/06/07 02:55:54;;;;;;;9.10;7.50;;;;;;;14.65;66.33;100833.59;104656;1273;98096;-79
2023/06/07 02:58:40;;;;;;;11.10;7.40;;;;;;;14.66;66.34;100829.13;104629;1275;97997;-79
2023/06/07 03:01:27;;;;;;;11.70;7.50;;;;;;;14.66;66.34;100833.23;104707;1273;99269;-79
2023/06/07 03:04:13;;;;;;;7.90;7.10;;;;;;;14.64;66.60;100833.48;104787;1271;102601;-81
2023/06/07 03:06:59;;;;;;;12.50;7.80;;;;;;;14.60;66.90;100835.92;104786;1268;99107;-79
2023/06/07 03:09:52;;;;;;;9.70;7.30;;;;;;;14.54;66.89;100838.83;105294;1271;98541;-80
2023/06/07 03:12:38;;;;;;;10.90;7.70;;;;;;;14.50;67.13;100839.08;104600;1271;97959;-79
2023/06/07 03:15:25;;;;;;;10.00;8.10;;;;;;;14.48;67.39;100841.05;104798;1272;98512;-81
2023/06/07 03:18:15;;;;;;;11.30;7.80;;;;;;;14.49;67.36;100845.03;104815;1276;101391;-81
2023/06/07 03:21:02;;;;;;;12.90;8.40;;;;;;;14.51;67.42;100845.21;105451;1269;100309;-80
2023/06/07 03:23:48;;;;;;;11.80;7.80;;;;;;;14.52;67.41;100842.18;105253;1270;98432;-81
2023/06/07 03:26:34;;;;;;;10.10;7.40;;;;;;;14.54;67.23;100845.50;105357;1269;97875;-81
2023/06/07 03:29:20;;;;;;;8.80;7.50;;;;;;;14.58;66.95;100846.54;105237;1276;98522;-80
2023/06/07 03:32:07;;;;;;;9.30;7.80;;;;;;;14.62;66.84;100845.88;105378;1268;102696;-81
2023/06/07 03:34:54;;;;;;;11.50;7.30;;;;;;;14.67;67.07;100843.02;105448;1269;99106;-80
2023/06/07 03:37:40;;;;;;;9.80;7.50;;;;;;;14.71;67.05;100841.98;105298;1272;97793;-81
2023/06/07 03:40:26;;;;;;;11.80;7.70;;;;;;;14.74;67.36;100847.13;105201;1268;98095;-79
2023/06/07 03:43:12;;;;;;;14.70;7.50;;;;;;;14.77;67.16;100849.66;105355;1268;98412;-81
2023/06/07 03:45:59;;;;;;;9.80;7.60;;;;;;;14.82;67.15;100853.18;105371;1273;102697;-80
2023/06/07 03:48:45;;;;;;;10.60;7.10;;;;;;;14.88;66.97;100852.89;105289;1272;99256;-80
2023/06/07 03:51:32;;;;;;;10.10;7.20;;;;;;;14.94;66.86;100852.05;105232;1268;99156;-79
2023/06/07 03:54:19;;;;;;;10.80;6.40;;;;;;;15.01;66.95;100856.66;105251;1271;97981;-79
2023/06/07 03:57:08;;;;;;;10.30;6.70;;;;;;;15.07;66.76;100858.35;104730;1273;99771;-79
2023/06/07 03:59:56;;;;;;;9.10;6.40;;;;;;;15.13;67.17;100857.51;104655;1268;101315;-79
2023/06/07 04:02:43;;;;;;;8.50;7.10;;;;;;;15.17;67.41;100855.19;104785;1269;100114;-79
2023/06/07 04:05:29;;;;;;;10.10;6.60;;;;;;;15.20;67.24;100856.35;104696;1269;98508;-78
2023/06/07 04:08:16;;;;;;;10.50;6.60;;;;;;;15.23;67.14;100852.51;104704;1274;98105;-79
2023/06/07 04:11:01;;;;;;;10.80;6.60;;;;;;;15.29;67.08;100850.80;104666;1273;98499;-79
2023/06/07 04:13:48;;;;;;;7.80;7.00;;;;;;;15.37;67.05;100851.94;104719;1275;101339;-79
2023/06/07 04:16:34;;;;;;;11.80;7.10;;;;;;;15.49;66.88;100851.96;104778;1271;99851;-79
2023/06/07 04:19:20;;;;;;;8.30;6.40;;;;;;;15.62;66.55;100851.27;104704;1273;97901;-80
2023/06/07 04:22:06;;;;;;;11.00;6.60;;;;;;;15.76;66.41;100851.66;104568;1274;98088;-78
2023/06/07 04:24:53;;;;;;;9.90;6.70;;;;;;;15.88;66.05;100847.75;104741;1274;98490;-80
2023/06/07 04:27:39;;;;;;;9.90;6.30;;;;;;;15.98;66.29;100841.97;104571;1279;102347;-79
2023/06/07 04:30:34;;;;;;;9.30;6.00;;;;;;;16.07;66.41;100844.28;104553;1268;100362;-79
2023/06/07 04:33:21;;;;;;;14.70;6.70;;;;;;;16.16;66.60;100847.48;104617;1271;98990;-81
2023/06/07 04:36:08;;;;;;;10.10;5.80;;;;;;;16.26;66.35;100848.58;104721;1268;97953;-79
2023/06/07 04:39:00;;;;;;;8.90;5.60;;;;;;;16.39;66.08;100846.42;104678;1274;98387;-79
2023/06/07 04:41:48;;;;;;;7.70;5.90;;;;;;;16.50;66.50;100846.61;104692;1273;101352;-80
2023/06/07 04:44:36;;;;;;;7.90;5.50;;;;;;;16.57;65.64;100850.21;104598;1268;99830;-80
2023/06/07 04:47:33;;;;;;;9.00;6.10;;;;;;;16.66;65.49;100853.85;104627;1269;98982;-80
2023/06/07 04:50:20;;;;;;;6.40;5.40;;;;;;;16.76;65.51;100849.15;104641;1273;98066;-78
2023/06/07 04:53:06;;;;;;;6.10;5.20;;;;;;;16.85;64.98;100849.25;105146;1274;98519;-79
2023/06/07 04:55:53;;;;;;;13.40;5.10;;;;;;;16.92;64.22;100847.27;105020;1273;102587;-80
2023/06/07 04:58:40;;;;;;;8.00;5.40;;;;;;;17.00;64.44;100848.50;104574;1274;100133;-80
2023/06/07 05:01:28;;;;;;;13.40;5.70;;;;;;;17.11;64.14;100844.05;104538;1268;98027;-80
2023/06/07 05:04:16;;;;;;;6.40;5.60;;;;;;;17.21;63.81;100842.58;104678;1268;97981;-80
2023/06/07 05:07:07;;;;;;;10.20;5.50;;;;;;;17.32;63.75;100842.02;105151;1268;97958;-80
2023/06/07 05:09:54;;;;;;;11.60;5.50;;;;;;;17.43;63.62;100839.63;104534;1275;103262;-79
2023/06/07 05:12:41;;;;;;;10.60;6.00;;;;;;;17.56;63.51;100840.80;104785;1269;99168;-80
2023/06/07 05:15:28;;;;;;;8.70;5.50;;;;;;;17.69;62.77;100836.64;105032;1273;105878;-79
2023/06/07 05:18:19;;;;;;;10.00;5.10;;;;;;;17.81;63.00;100836.82;105354;1271;98648;-78
2023/06/07 05:21:05;;;;;;;5.50;4.90;;;;;;;17.95;62.35;100838.02;105136;1268;98060;-78
2023/06/07 05:23:50;;;;;;;7.40;4.40;;;;;;;18.05;62.40;100833.33;104674;1268;101450;-80
2023/06/07 05:26:36;;;;;;;5.80;4.70;;;;;;;18.16;62.29;100833.80;104627;1269;100583;-80
2023/06/07 05:29:22;;;;;;;5.30;4.40;;;;;;;18.28;62.36;100837.00;104776;1269;97751;-80
2023/06/07 05:32:08;;;;;;;10.30;5.00;;;;;;;18.42;61.90;100839.52;104753;1269;97987;-79
2023/06/07 05:34:54;;;;;;;8.00;5.00;;;;;;;18.56;61.16;100839.19;104983;1268;98424;-81
2023/06/07 05:37:40;;;;;;;8.70;5.10;;;;;;;18.71;60.65;100840.66;105052;1273;102629;-80
2023/06/07 05:40:26;;;;;;;7.70;4.30;;;;;;;18.85;59.92;100836.89;105087;1269;99092;-80
2023/06/07 05:43:11;;;;;;;8.40;4.50;;;;;;;18.99;58.85;100840.31;105026;1269;98083;-80
2023/06/07 05:45:57;;;;;;;10.70;4.50;;;;;;;19.11;58.60;100842.13;105063;1269;97800;-81
2023/06/07 05:48:43;;;;;;;5.40;4.50;;;;;;;19.25;58.25;100845.10;105143;1269;98424;-81
2023/06/07 05:51:32;;;;;;;6.80;5.60;;;;;;;19.39;58.22;100845.81;105050;1273;102497;-80
2023/06/07 05:54:18;;;;;;;5.90;4.40;;;;;;;19.54;57.61;100844.90;105200;1268;100368;-79
2023/06/07 05:57:03;;;;;;;8.90;4.20;;;;;;;19.69;57.67;100841.58;105219;1273;97907;-81
2023/06/07 05:59:49;;;;;;;7.00;4.60;;;;;;;19.84;57.29;100843.59;105246;1273;97929;-79
2023/06/07 06:02:35;;;;;;;6.30;4.60;;;;;;;20.00;56.62;100840.80;105187;1273;98429;-80
2023/06/07 06:05:21;;;;;;;8.40;4.70;;;;;;;20.14;55.78;100842.77;105207;1268;102637;-80
2023/06/07 06:08:06;;;;;;;7.40;4.40;;;;;;;20.29;56.13;100842.48;105317;1268;99070;-79
2023/06/07 06:10:51;;;;;;;8.00;3.80;;;;;;;20.44;56.18;100842.84;104662;1271;99303;-81
2023/06/07 06:13:39;;;;;;;9.20;4.70;;;;;;;20.59;55.88;100841.75;104856;1274;97949;-80
2023/06/07 06:16:24;;;;;;;15.00;4.40;;;;;;;20.73;55.42;100843.35;104952;1274;98429;-81
2023/06/07 06:19:10;;;;;;;6.60;3.80;;;;;;;20.87;54.78;100845.42;104746;1273;101345;-80
2023/06/07 06:21:56;;;;;;;10.50;4.20;;;;;;;21.02;55.44;100845.30;104665;1272;100334;-80
2023/06/07 06:24:41;;;;;;;7.90;4.10;;;;;;;21.18;54.59;100848.50;104812;1273;97980;-79
2023/06/07 06:27:27;;;;;;;8.40;3.80;;;;;;;21.31;54.35;100848.48;105321;1274;99273;-80
2023/06/07 06:30:12;;;;;;;7.40;3.80;;;;;;;21.45;53.54;100848.66;105242;1269;97973;-80
2023/06/07 06:32:59;;;;;;;8.80;4.20;;;;;;;21.58;53.23;100849.02;104774;1269;101337;-80
2023/06/07 06:35:46;;;;;;;5.90;2.80;;;;;;;21.70;52.65;100847.38;104748;1273;99575;-79
2023/06/07 06:38:31;;;;;;;4.00;3.20;;;;;;;21.84;51.75;100844.19;104728;1268;99132;-80
2023/06/07 06:41:17;;;;;;;8.90;3.60;;;;;;;21.96;51.11;100842.14;104693;1273;98566;-79
2023/06/07 06:44:03;;;;;;;5.80;3.10;;;;;;;22.07;50.82;100840.27;104704;1268;98856;-80
2023/06/07 06:46:49;;;;;;;5.60;2.50;;;;;;;22.20;50.32;100842.63;104598;1274;102281;-78
2023/06/07 06:49:34;;;;;;;5.40;3.60;;;;;;;22.31;50.07;100838.59;104638;1273;100354;-79
2023/06/07 06:52:21;;;;;;;6.50;3.20;;;;;;;22.42;49.55;100839.46;104689;1273;97883;-80
2023/06/07 06:55:07;;;;;;;5.30;2.80;;;;;;;22.53;49.33;100837.56;105298;1274;98010;-80
2023/06/07 06:57:52;;;;;;;4.00;2.80;;;;;;;22.66;49.04;100844.79;105111;1269;98332;-80
2023/06/07 07:00:38;;;;;;;6.40;2.90;;;;;;;22.79;47.95;100847.04;104751;1274;102660;-81
2023/06/07 07:03:24;;;;;;;4.50;2.80;;;;;;;22.91;47.18;100849.48;104810;1275;100353;-79
2023/06/07 07:06:10;;;;;;;4.30;2.80;;;;;;;23.01;46.79;100847.54;105229;1271;97961;-80
2023/06/07 07:08:55;;;;;;;8.40;2.80;;;;;;;23.13;47.33;100845.77;104621;1273;98106;-79
2023/06/07 07:11:42;;;;;;;10.20;2.90;;;;;;;23.26;47.05;100841.64;104814;1269;97980;-79
2023/06/07 07:14:27;;;;;;;6.60;3.10;;;;;;;23.38;46.31;100842.98;104684;1271;101319;-80
2023/06/07 07:17:13;;;;;;;4.10;2.60;;;;;;;23.47;45.49;100842.27;104709;1268;99290;-79
2023/06/07 07:19:59;;;;;;;3.90;2.40;;;;;;;23.55;45.22;100844.40;104763;1268;99002;-79
2023/06/07 07:22:46;;;;;;;6.60;2.70;;;;;;;23.66;44.90;100842.15;104777;1269;97994;-78
2023/06/07 07:25:31;;;;;;;4.30;2.60;;;;;;;23.77;44.39;100843.23;104849;1274;98444;-81
2023/06/07 07:28:17;;;;;;;5.40;3.50;;;;;;;23.85;43.81;100842.13;105457;1268;101349;-85
2023/06/07 07:31:02;;;;;;;4.20;2.50;;;;;;;23.93;43.89;100839.74;105496;1269;99183;-80
2023/06/07 07:33:48;;;;;;;4.20;2.00;;;;;;;24.03;42.66;100841.33;105766;1271;100584;-85
2023/06/07 07:36:34;;;;;;;5.70;2.50;;;;;;;24.11;41.90;100844.55;104880;1279;98076;-84
2023/06/07 07:39:21;;;;;;;4.90;2.50;;;;;;;24.17;41.60;100843.96;105288;1268;97910;-85
2023/06/07 07:42:08;;;;;;;4.30;2.30;;;;;;;24.27;41.47;100842.88;105137;1269;102613;-84
2023/06/07 07:44:54;;;;;;;3.40;2.60;;;;;;;24.34;40.93;100844.54;105047;1269;99108;-79
2023/06/07 07:47:41;;;;;;;5.40;2.90;;;;;;;24.41;40.36;100842.30;104788;1273;97987;-78
2023/06/07 07:50:27;;;;;;;5.50;2.60;;;;;;;24.46;40.08;100843.40;104699;1268;98091;-78
2023/06/07 07:53:13;;;;;;;7.50;2.90;;;;;;;24.52;40.19;100839.40;104559;1269;98472;-78
2023/06/07 07:55:58;;;;;;;5.00;2.90;;;;;;;24.58;40.11;100836.67;104558;1272;103051;-78
2023/06/07 07:58:45;;;;;;;6.00;3.00;;;;;;;24.65;40.10;100834.00;104313;1274;100858;-78
2023/06/07 08:01:31;;;;;;;4.20;2.60;;;;;;;24.72;40.02;100834.10;104442;1274;97955;-78
2023/06/07 08:04:16;;;;;;;5.60;2.90;;;;;;;24.78;39.82;100837.91;104429;1273;97993;-78
2023/06/07 08:07:02;;;;;;;4.70;3.00;;;;;;;24.82;39.53;100833.58;104551;1268;98126;-78
2023/06/07 08:09:47;;;;;;;6.10;3.10;;;;;;;24.89;39.90;100833.16;104452;1269;102621;-77
2023/06/07 08:12:34;;;;;;;5.50;2.70;;;;;;;24.98;40.59;100833.91;104555;1272;99111;-77
2023/06/07 08:15:19;;;;;;;7.90;2.50;;;;;;;25.08;40.57;100834.11;104617;1270;97986;-79
2023/06/07 08:18:05;;;;;;;5.50;2.90;;;;;;;25.15;40.46;100829.54;104491;1274;97884;-78
2023/06/07 08:20:51;;;;;;;6.50;3.40;;;;;;;25.24;40.98;100829.91;104594;1276;98051;-78
2023/06/07 08:23:36;;;;;;;5.90;2.90;;;;;;;25.35;40.38;100830.92;104446;1276;102557;-78
2023/06/07 08:26:22;;;;;;;5.50;3.70;;;;;;;25.42;39.53;100830.89;104771;1273;99116;-79
2023/06/07 08:29:08;;;;;;;6.50;3.10;;;;;;;25.49;39.19;100828.77;104780;1272;99092;-79
2023/06/07 08:31:53;;;;;;;9.00;3.00;;;;;;;25.55;38.75;100829.02;104520;1272;98450;-77
2023/06/07 08:34:40;;;;;;;4.80;2.70;;;;;;;25.60;38.54;100826.70;104422;1273;97993;-77
2023/06/07 08:37:25;;;;;;;5.80;3.00;;;;;;;25.65;38.03;100822.79;104403;1271;101496;-76
2023/06/07 08:40:11;;;;;;;5.70;2.20;;;;;;;25.70;37.55;100818.81;104415;1274;99236;-78
2023/06/07 08:42:57;;;;;;;3.20;2.80;;;;;;;25.75;37.21;100818.85;104389;1269;100455;-78
2023/06/07 08:45:43;;;;;;;6.40;2.70;;;;;;;25.80;36.99;100814.32;104286;1277;99152;-78
2023/06/07 08:48:32;;;;;;;7.50;2.90;;;;;;;25.86;36.59;100816.27;104621;1274;98495;-78
2023/06/07 08:51:20;;;;;;;6.60;2.70;;;;;;;25.91;36.38;100820.35;104413;1269;102688;-77
2023/06/07 08:54:09;;;;;;;3.70;3.00;;;;;;;25.94;36.53;100810.08;104435;1273;100075;-76
2023/06/07 08:56:55;;;;;;;4.10;2.40;;;;;;;25.99;36.16;100811.59;104465;1272;98378;-78
2023/06/07 08:59:44;;;;;;;4.50;2.90;;;;;;;26.05;36.16;100811.55;104375;1268;98047;-78
2023/06/07 09:02:29;;;;;;;8.30;3.00;;;;;;;26.14;36.49;100814.81;106594;1274;95802;-77
2023/06/07 09:05:15;;;;;;;7.40;2.90;;;;;;;26.24;36.86;100816.63;104409;1273;101417;-78
2023/06/07 09:08:02;;;;;;;5.80;3.00;;;;;;;26.34;35.92;100815.23;104666;1273;100223;-78
2023/06/07 09:10:48;;;;;;;4.40;2.80;;;;;;;26.49;35.63;100817.77;104746;1270;98677;-78
2023/06/07 09:13:34;;;;;;;3.80;2.70;;;;;;;26.60;34.91;100815.97;104757;1273;98003;-78
2023/06/07 09:16:19;;;;;;;4.50;3.00;;;;;;;26.72;34.44;100812.91;104606;1274;97997;-78
2023/06/07 09:19:06;;;;;;;4.40;3.00;;;;;;;26.86;35.12;100816.27;104601;1274;101949;-78
2023/06/07 09:21:55;;;;;;;6.30;3.00;;;;;;;26.95;35.41;100820.27;104711;1274;100835;-77
2023/06/07 09:24:42;;;;;;;8.10;3.20;;;;;;;27.00;34.81;100818.67;104651;1275;98006;-77
2023/06/07 09:27:30;;;;;;;4.50;3.20;;;;;;;26.95;34.42;100820.36;104653;1274;97892;-78
2023/06/07 09:30:18;;;;;;;11.60;2.80;;;;;;;26.87;34.13;100823.36;104524;1274;98518;-79
2023/06/07 09:33:03;;;;;;;6.80;2.60;;;;;;;26.83;33.98;100821.09;104616;1273;101733;-78
2023/06/07 09:36:08;;;;;;;9.30;2.80;;;;;;;26.76;33.47;100816.63;104604;1271;99379;-77
2023/06/07 09:38:53;;;;;;;3.70;2.90;;;;;;;26.59;33.60;100815.76;104658;1273;98534;-77
2023/06/07 09:41:39;;;;;;;5.70;2.90;;;;;;;26.44;33.36;100823.52;105028;1270;98075;-83
2023/06/07 09:44:30;;;;;;;5.50;3.30;;;;;;;26.30;33.56;100817.45;105613;1269;97887;-79
2023/06/07 09:47:23;;;;;;;6.90;2.70;;;;;;;26.16;33.73;100814.83;104594;1269;102629;-80
2023/06/07 09:50:10;;;;;;;8.00;3.10;;;;;;;26.06;34.05;100817.16;104593;1275;100341;-78
2023/06/07 09:52:57;;;;;;;3.60;3.00;;;;;;;26.01;34.68;100813.50;104690;1275;98080;-79
2023/06/07 09:55:43;;;;;;;7.20;3.50;;;;;;;26.08;34.26;100809.14;104653;1274;97893;-79
2023/06/07 09:58:29;;;;;;;4.30;3.10;;;;;;;26.22;34.04;100810.32;104656;1272;99635;-78
2023/06/07 10:01:29;;;;;;;3.80;2.80;;;;;;;26.26;33.83;100809.09;104695;1273;101368;-79
2023/06/07 10:04:15;;;;;;;3.80;3.20;;;;;;;26.22;34.17;100810.77;104684;1274;99900;-79
2023/06/07 10:07:02;;;;;;;6.50;3.40;;;;;;;26.19;34.32;100803.86;104729;1268;98540;-79
2023/06/07 10:09:51;;;;;;;4.50;2.90;;;;;;;26.31;34.45;100795.86;104691;1269;98063;-79
2023/06/07 10:12:42;;;;;;;5.40;3.10;;;;;;;26.45;34.25;100792.41;104767;1274;97973;-79
2023/06/07 10:15:29;;;;;;;7.20;3.10;;;;;;;26.50;33.50;100793.23;104542;1269;102914;-78
2023/06/07 10:18:23;;;;;;;6.10;3.00;;;;;;;26.55;33.45;100792.49;104553;1274;100450;-77
2023/06/07 10:21:15;;;;;;;10.10;2.90;;;;;;;26.72;34.06;100793.63;104497;1269;98880;-79
2023/06/07 10:24:08;;;;;;;5.30;3.10;;;;;;;26.96;33.93;100799.41;104366;1277;99317;-78
2023/06/07 10:26:59;;;;;;;5.80;3.00;;;;;;;27.19;33.72;100796.47;104458;1274;98450;-78
2023/06/07 10:30:02;;;;;;;4.50;2.70;;;;;;;27.40;33.24;100796.85;104389;1269;103361;-78
2023/06/07 10:32:48;;;;;;;4.60;2.80;;;;;;;27.57;32.63;100789.12;104696;1270;100670;-79
2023/06/07 10:35:34;;;;;;;5.80;2.80;;;;;;;27.74;32.69;100789.73;104514;1273;98017;-78
2023/06/07 10:38:20;;;;;;;4.90;3.10;;;;;;;27.86;32.50;100784.10;104409;1268;97978;-78
2023/06/07 10:41:06;;;;;;;6.10;3.20;;;;;;;27.96;32.57;100781.23;104321;1275;99662;-77
2023/06/07 10:43:52;;;;;;;7.30;2.90;;;;;;;28.03;31.89;100782.41;104407;1273;101358;-78
2023/06/07 10:46:37;;;;;;;7.40;3.00;;;;;;;28.05;32.11;100778.23;104450;1275;100357;-78
2023/06/07 10:49:36;;;;;;;6.80;3.20;;;;;;;28.17;32.04;100774.66;104366;1268;99145;-77
2023/06/07 10:52:24;;;;;;;9.80;2.80;;;;;;;28.32;31.86;100775.67;104528;1276;98041;-79
2023/06/07 10:55:23;;;;;;;11.00;3.50;;;;;;;28.41;32.05;100770.23;104538;1270;98510;-79
2023/06/07 10:58:26;;;;;;;6.50;3.10;;;;;;;28.49;31.76;100774.13;104676;1269;101750;-79
2023/06/07 11:01:22;;;;;;;9.40;4.10;;;;;;;28.46;31.53;100772.81;104693;1274;99071;-79
2023/06/07 11:04:42;;;;;;;4.90;3.20;;;;;;;28.31;31.09;100771.78;104701;1275;99393;-79
2023/06/07 11:07:31;;;;;;;5.70;3.30;;;;;;;28.26;31.27;100769.66;104618;1273;97988;-78
2023/06/07 11:10:16;;;;;;;6.20;2.90;;;;;;;28.34;31.52;100763.69;104559;1273;98502;-79
2023/06/07 11:13:03;;;;;;;7.00;3.30;;;;;;;28.46;31.67;100763.23;104416;1274;101924;-79
2023/06/07 11:15:49;;;;;;;7.10;3.80;;;;;;;28.50;31.20;100765.14;104411;1274;100908;-79
2023/06/07 11:19:09;;;;;;;7.70;3.00;;;;;;;28.41;30.96;100765.23;104415;1274;98419;-78
2023/06/07 11:21:57;;;;;;;6.30;3.40;;;;;;;28.23;31.38;100768.61;104402;1274;97921;-79
2023/06/07 11:24:48;;;;;;;4.80;3.50;;;;;;;28.06;30.88;100765.08;104441;1272;98555;-78
2023/06/07 11:27:33;;;;;;;;;;;;;;;27.88;31.01;100763.88;104341;1273;101484;-78
2023/06/07 11:30:19;;;;;;;5.80;3.00;;;;;;;27.70;30.92;100764.40;104336;1269;109622;-79
2023/06/07 11:33:05;;;;;;;8.20;3.00;;;;;;;27.64;31.67;100762.83;104406;1273;98822;-78
2023/06/07 11:35:55;;;;;;;3.30;2.60;;;;;;;27.66;31.66;100758.30;104417;1274;97918;-79
2023/06/07 11:38:41;;;;;;;9.50;2.80;;;;;;;27.60;32.00;100761.17;104352;1275;98066;-78
2023/06/07 11:41:27;;;;;;;5.30;3.20;;;;;;;27.50;32.09;100761.69;104428;1273;102632;-78
2023/06/07 11:44:13;;;;;;;5.40;2.90;;;;;;;27.44;32.15;100760.71;104450;1269;99121;-78
2023/06/07 11:47:02;;;;;;;7.40;2.80;;;;;;;27.40;32.26;100760.17;104329;1273;99234;-78
2023/06/07 11:49:47;;;;;;;3.60;3.00;;;;;;;27.30;32.12;100759.33;104422;1275;97984;-78
2023/06/07 11:52:38;;;;;;;9.50;3.40;;;;;;;27.23;32.54;100760.17;104479;1273;97985;-77
2023/06/07 11:55:24;;;;;;;8.00;3.30;;;;;;;27.22;32.78;100763.17;104429;1273;101360;-78
2023/06/07 11:58:10;;;;;;;8.80;3.50;;;;;;;27.20;32.67;100755.48;104481;1274;99893;-78
2023/06/07 12:00:57;;;;;;;5.50;3.10;;;;;;;27.33;33.05;100749.83;104349;1274;99301;-77
2023/06/07 12:03:43;;;;;;;3.60;2.60;;;;;;;27.52;32.58;100754.41;104378;1275;97990;-77
2023/06/07 12:06:28;;;;;;;5.80;3.60;;;;;;;27.70;32.62;100755.16;104371;1274;99180;-78
2023/06/07 12:09:13;;;;;;;10.00;3.30;;;;;;;27.85;33.01;100749.10;104416;1275;102421;-79
2023/06/07 12:11:59;;;;;;;3.70;3.20;;;;;;;28.03;33.35;100744.20;104427;1274;108177;-78
2023/06/07 12:14:46;;;;;;;7.30;3.00;;;;;;;28.19;32.78;100742.77;104430;1276;99542;-78
2023/06/07 12:17:36;;;;;;;5.60;3.10;;;;;;;28.31;32.39;100736.69;104457;1273;97984;-78
2023/06/07 12:20:22;;;;;;;4.80;3.00;;;;;;;28.42;32.32;100732.75;104415;1283;98474;-79
2023/06/07 12:23:09;;;;;;;4.20;2.80;;;;;;;28.40;31.78;100730.13;104445;1275;101432;-79
2023/06/07 12:26:15;;;;;;;4.50;2.50;;;;;;;28.38;31.74;100731.99;104527;1276;99291;-79
2023/06/07 12:29:01;;;;;;;7.30;3.30;;;;;;;28.24;31.31;100736.80;104483;1271;98577;-79
2023/06/07 12:31:48;;;;;;;6.90;3.00;;;;;;;28.03;31.02;100735.41;104501;1274;97985;-79
2023/06/07 12:34:33;;;;;;;6.10;2.90;;;;;;;27.80;31.18;100735.58;104452;1273;99282;-78
2023/06/07 12:37:19;;;;;;;5.70;2.70;;;;;;;27.65;31.69;100732.09;104520;1272;101336;-79
2023/06/07 12:40:07;;;;;;;4.70;2.70;;;;;;;27.57;31.80;100726.16;104557;1278;100329;-79
2023/06/07 12:42:53;;;;;;;3.30;2.80;;;;;;;27.52;32.19;100724.92;104524;1273;99536;-79
2023/06/07 12:45:39;;;;;;;5.70;3.00;;;;;;;27.48;31.97;100721.59;104487;1274;99256;-79